Time;durP1;ratioP1;P1;durP2;ratioP2;P2;SDS_P1;SDS_P2;PMS_P1;PMS_P2;Temp;Humidity;BMP_temperature;BMP_pressure;BME280_temperature;BME280_humidity;BME280_pressure;Samples;Min_cycle;Max_cycle;Signal;HPM_P1;HPM_P2
2023/04/12 00:01:03;;;;;;;14.50;6.88;;;20.50;55.70;;;;;;4913762;29;20425;-73
2023/04/12 00:03:32;;;;;;;16.02;6.93;;;20.50;55.80;;;;;;4913729;29;20038;-73
2023/04/12 00:06:02;;;;;;;12.83;7.13;;;20.50;56.10;;;;;;4913384;29;20046;-73
2023/04/12 00:08:34;;;;;;;14.75;6.35;;;20.50;56.10;;;;;;4910541;29;20329;-73
2023/04/12 00:11:02;;;;;;;11.60;6.57;;;20.40;55.70;;;;;;4914630;29;20033;-73
2023/04/12 00:13:28;;;;;;;12.35;6.43;;;20.50;55.50;;;;;;4922605;29;20591;-73
2023/04/12 00:15:54;;;;;;;14.05;7.10;;;20.50;56.00;;;;;;4931513;29;20024;-73
2023/04/12 00:18:23;;;;;;;12.70;6.22;;;20.40;55.80;;;;;;4930910;29;20030;-72
2023/04/12 00:20:54;;;;;;;11.77;6.25;;;20.40;55.90;;;;;;4931211;29;20031;-74
2023/04/12 00:23:23;;;;;;;12.45;5.68;;;20.40;56.50;;;;;;4930753;29;20038;-73
2023/04/12 00:25:49;;;;;;;12.68;6.85;;;20.40;55.80;;;;;;4930798;29;20496;-73
2023/04/12 00:28:15;;;;;;;13.38;6.63;;;20.40;55.80;;;;;;4931644;29;20141;-73
2023/04/12 00:30:47;;;;;;;12.07;6.13;;;20.40;55.80;;;;;;4932675;29;20036;-74
2023/04/12 00:33:12;;;;;;;14.93;6.22;;;20.40;55.90;;;;;;4934531;29;20552;-73
2023/04/12 00:35:38;;;;;;;13.63;6.38;;;20.40;56.10;;;;;;4933271;29;20402;-74
2023/04/12 00:38:09;;;;;;;13.10;6.45;;;20.40;56.00;;;;;;4934046;29;20054;-74
2023/04/12 00:40:40;;;;;;;16.80;6.60;;;20.40;56.10;;;;;;4932573;29;20107;-74
2023/04/12 00:43:06;;;;;;;14.02;6.53;;;20.40;56.40;;;;;;4933008;29;20050;-73
2023/04/12 00:45:40;;;;;;;11.95;5.95;;;20.40;56.20;;;;;;4934178;29;20036;-74
2023/04/12 00:48:09;;;;;;;10.60;5.72;;;20.30;56.30;;;;;;4932705;29;20036;-73
2023/04/12 00:50:35;;;;;;;16.02;6.47;;;20.30;56.30;;;;;;4932933;29;20090;-72
2023/04/12 00:53:03;;;;;;;11.88;6.18;;;20.30;56.10;;;;;;4934242;29;20063;-72
2023/04/12 00:55:31;;;;;;;13.23;6.43;;;20.30;56.00;;;;;;4932381;29;20091;-73
2023/04/12 00:57:58;;;;;;;14.10;6.28;;;20.40;56.40;;;;;;4933012;29;20036;-73
2023/04/12 01:00:24;;;;;;;12.63;6.00;;;20.40;56.10;;;;;;4932595;29;20032;-73
2023/04/12 01:02:51;;;;;;;14.77;6.25;;;20.30;56.40;;;;;;4932688;29;20055;-74
2023/04/12 01:05:23;;;;;;;15.93;6.10;;;20.30;55.90;;;;;;4933658;29;20038;-73
2023/04/12 01:08:14;;;;;;;14.00;5.75;;;20.30;56.10;;;;;;4933797;29;20111;-73
2023/04/12 01:10:40;;;;;;;15.90;6.07;;;20.30;55.80;;;;;;4932728;29;20039;-72
2023/04/12 01:13:20;;;;;;;12.57;6.07;;;20.30;55.90;;;;;;4933776;29;20032;-73
2023/04/12 01:16:04;;;;;;;12.75;5.93;;;20.30;55.80;;;;;;4932295;29;20035;-73
2023/04/12 01:18:39;;;;;;;13.63;6.00;;;20.40;56.10;;;;;;4932036;29;20030;-73
2023/04/12 01:21:08;;;;;;;11.70;5.65;;;20.30;56.10;;;;;;4912455;29;20039;-73
2023/04/12 01:23:38;;;;;;;12.75;5.47;;;20.30;56.20;;;;;;4916544;29;20028;-73
2023/04/12 01:26:33;;;;;;;11.75;5.68;;;20.30;56.00;;;;;;4916492;29;20094;-73
2023/04/12 01:29:06;;;;;;;12.13;5.53;;;20.30;56.10;;;;;;4914979;29;20540;-73
2023/04/12 01:31:34;;;;;;;13.15;5.78;;;20.30;55.80;;;;;;4899839;29;20064;-73
2023/04/12 01:34:01;;;;;;;13.70;5.80;;;20.30;55.90;;;;;;4915195;29;20032;-73
2023/04/12 01:36:28;;;;;;;10.68;5.82;;;20.30;55.80;;;;;;4915067;29;20039;-73
2023/04/12 01:38:56;;;;;;;11.55;5.55;;;20.30;55.80;;;;;;4914820;29;20024;-73
2023/04/12 01:41:22;;;;;;;10.68;5.63;;;20.30;55.80;;;;;;4915921;29;20414;-73
2023/04/12 01:43:48;;;;;;;13.20;5.63;;;20.30;55.80;;;;;;4914774;29;20531;-73
2023/04/12 01:46:18;;;;;;;11.10;4.80;;;20.30;55.90;;;;;;4914907;29;20060;-73
2023/04/12 01:48:52;;;;;;;10.30;5.75;;;20.30;56.00;;;;;;4914683;29;20028;-73
2023/04/12 01:51:54;;;;;;;11.27;5.68;;;20.30;55.80;;;;;;4915107;29;20119;-72
2023/04/12 01:54:26;;;;;;;11.10;5.45;;;20.30;55.80;;;;;;4902358;29;20044;-73
2023/04/12 01:57:02;;;;;;;10.55;5.10;;;20.30;55.90;;;;;;4916137;29;20168;-73
2023/04/12 01:59:38;;;;;;;11.18;5.40;;;20.30;55.80;;;;;;4914342;29;20036;-72
2023/04/12 02:02:04;;;;;;;10.70;4.85;;;20.30;55.70;;;;;;4914938;29;20157;-73
2023/04/12 02:04:34;;;;;;;10.55;4.57;;;20.30;55.80;;;;;;4899008;29;20466;-73
2023/04/12 02:07:00;;;;;;;9.80;4.90;;;20.30;55.60;;;;;;4914720;29;20093;-73
2023/04/12 02:09:26;;;;;;;10.15;4.75;;;20.30;55.70;;;;;;4897316;29;20036;-72
2023/04/12 02:11:52;;;;;;;9.48;4.95;;;20.30;56.20;;;;;;4914509;29;20437;-73
2023/04/12 02:14:18;;;;;;;10.52;5.05;;;20.30;56.00;;;;;;4914410;29;20036;-72
2023/04/12 02:16:45;;;;;;;9.02;4.63;;;20.30;56.00;;;;;;4915661;29;20481;-72
2023/04/12 02:19:13;;;;;;;9.45;4.53;;;20.30;55.70;;;;;;4910379;29;20442;-72
2023/04/12 02:21:43;;;;;;;8.18;4.70;;;20.30;56.30;;;;;;4914532;29;20056;-72
2023/04/12 02:24:10;;;;;;;9.32;4.95;;;20.30;55.70;;;;;;4914568;29;20106;-72
2023/04/12 02:26:37;;;;;;;11.85;5.28;;;20.30;55.90;;;;;;4930248;29;20032;-73
2023/04/12 02:29:07;;;;;;;9.82;4.80;;;20.30;55.60;;;;;;4930927;29;20036;-72
2023/04/12 02:31:35;;;;;;;10.73;5.22;;;20.30;55.70;;;;;;4915332;29;20044;-73
2023/04/12 02:34:01;;;;;;;6.72;4.22;;;20.30;55.70;;;;;;4914862;29;20035;-72
2023/04/12 02:36:28;;;;;;;11.40;4.75;;;20.20;55.70;;;;;;4888159;29;20041;-72
2023/04/12 02:42:41;;;;;;;12.13;5.35;;;20.30;55.70;;;;;;4880137;29;20536;-74
2023/04/12 02:45:10;;;;;;;8.30;4.28;;;20.30;55.70;;;;;;4913831;29;20394;-73
2023/04/12 02:47:36;;;;;;;8.75;4.40;;;20.30;55.80;;;;;;4914204;29;20054;-73
2023/04/12 02:50:04;;;;;;;7.95;4.47;;;20.30;55.70;;;;;;4913671;29;20035;-73
2023/04/12 02:52:42;;;;;;;8.45;4.28;;;20.20;55.60;;;;;;4912713;29;20040;-75
2023/04/12 02:55:10;;;;;;;8.88;4.35;;;20.20;55.70;;;;;;4898073;29;20063;-73
2023/04/12 02:57:36;;;;;;;8.27;4.60;;;20.20;55.70;;;;;;4914775;29;20114;-72
2023/04/12 03:00:11;;;;;;;8.40;4.18;;;20.20;55.80;;;;;;4913445;29;20067;-73
2023/04/12 03:02:43;;;;;;;9.05;4.63;;;20.20;55.60;;;;;;4898187;29;20036;-72
2023/04/12 03:05:16;;;;;;;8.63;4.75;;;20.30;55.60;;;;;;4913876;29;20032;-73
2023/04/12 03:07:42;;;;;;;7.07;4.00;;;20.20;55.50;;;;;;4913618;29;20043;-73
2023/04/12 03:10:12;;;;;;;9.82;4.90;;;20.20;55.60;;;;;;4897877;29;20061;-73
2023/04/12 03:12:43;;;;;;;7.47;3.75;;;20.30;55.40;;;;;;4930369;29;20088;-72
2023/04/12 03:15:22;;;;;;;8.05;4.40;;;20.30;55.50;;;;;;4930580;29;20031;-72
2023/04/12 03:17:50;;;;;;;8.80;4.35;;;20.20;55.30;;;;;;4929597;29;20027;-72
2023/04/12 03:20:19;;;;;;;8.13;4.05;;;20.30;55.60;;;;;;4931482;29;20028;-72
2023/04/12 03:22:57;;;;;;;10.15;4.47;;;20.20;55.60;;;;;;4914257;29;20492;-72
2023/04/12 03:25:23;;;;;;;10.30;4.20;;;20.20;55.60;;;;;;4930104;29;20042;-72
2023/04/12 03:27:54;;;;;;;7.85;3.92;;;20.20;55.60;;;;;;4930259;29;20036;-74
2023/04/12 03:30:27;;;;;;;7.05;3.88;;;20.20;55.70;;;;;;4914971;29;20116;-72
2023/04/12 03:32:55;;;;;;;7.22;3.67;;;20.20;55.60;;;;;;4929970;29;20027;-73
2023/04/12 03:35:22;;;;;;;9.63;4.28;;;20.20;55.70;;;;;;4929967;29;20040;-73
2023/04/12 03:37:48;;;;;;;9.25;4.05;;;20.20;55.70;;;;;;4929957;29;20024;-72
2023/04/12 03:40:15;;;;;;;6.70;3.97;;;20.20;55.60;;;;;;4929469;29;20031;-73
2023/04/12 03:42:48;;;;;;;9.30;3.60;;;20.20;55.50;;;;;;4929999;29;20114;-72
2023/04/12 03:45:14;;;;;;;8.15;4.25;;;20.20;55.60;;;;;;4914293;29;20086;-72
2023/04/12 03:47:44;;;;;;;8.45;3.72;;;20.20;55.60;;;;;;4929598;29;20043;-72
2023/04/12 03:50:11;;;;;;;7.85;3.35;;;20.20;55.70;;;;;;4912960;29;20036;-72
2023/04/12 03:52:37;;;;;;;6.70;3.70;;;20.20;55.50;;;;;;4913156;29;20051;-72
2023/04/12 03:55:06;;;;;;;6.80;3.70;;;20.20;55.70;;;;;;4914233;29;20040;-72
2023/04/12 03:57:32;;;;;;;7.68;3.83;;;20.20;56.10;;;;;;4912898;29;20083;-72
2023/04/12 03:59:59;;;;;;;7.57;3.38;;;20.20;55.50;;;;;;4929621;29;20027;-72
2023/04/12 04:02:33;;;;;;;6.97;3.70;;;20.20;55.40;;;;;;4931322;29;20480;-72
2023/04/12 04:05:01;;;;;;;7.43;3.83;;;20.20;55.50;;;;;;4933629;29;20034;-73
2023/04/12 04:07:28;;;;;;;7.13;3.53;;;20.20;55.30;;;;;;4916918;29;20452;-73
2023/04/12 04:09:55;;;;;;;8.57;3.47;;;20.20;55.40;;;;;;4916399;29;20515;-73
2023/04/12 04:12:22;;;;;;;6.95;3.55;;;20.20;55.10;;;;;;4916899;29;20032;-73
2023/04/12 04:14:52;;;;;;;;;;;20.20;55.30;;;;;;4916839;29;20512;-72
2023/04/12 04:17:28;;;;;;;8.10;4.20;;;20.20;55.20;;;;;;4916763;29;19925;-73
2023/04/12 04:19:55;;;;;;;8.93;4.00;;;20.30;55.20;;;;;;4917919;29;20024;-72
2023/04/12 04:22:21;;;;;;;7.05;3.65;;;20.20;55.20;;;;;;4916333;29;20051;-72
2023/04/12 04:24:50;;;;;;;6.85;3.58;;;20.20;55.00;;;;;;4917067;29;20111;-72
2023/04/12 04:27:19;;;;;;;8.75;3.33;;;20.20;55.10;;;;;;4916337;29;20055;-74
2023/04/12 04:29:46;;;;;;;6.80;3.50;;;20.20;55.10;;;;;;4916228;29;20073;-73
2023/04/12 04:32:15;;;;;;;6.78;3.33;;;20.30;55.10;;;;;;4913761;29;20103;-73
2023/04/12 04:34:42;;;;;;;10.18;3.67;;;20.20;55.10;;;;;;4916330;29;20089;-73
2023/04/12 04:37:12;;;;;;;;;;;20.30;55.10;;;;;;4916911;29;20032;-73
2023/04/12 04:39:39;;;;;;;6.90;3.33;;;20.30;55.20;;;;;;4900237;29;19918;-73
2023/04/12 04:42:06;;;;;;;6.97;3.55;;;20.30;55.00;;;;;;4916162;29;20040;-73
2023/04/12 04:44:38;;;;;;;6.18;3.28;;;20.30;55.30;;;;;;4916176;29;20036;-73
2023/04/12 04:47:07;;;;;;;8.85;3.92;;;20.30;55.00;;;;;;4916079;29;20032;-73
2023/04/12 04:49:34;;;;;;;10.40;4.10;;;20.20;54.90;;;;;;4930362;29;20034;-73
2023/04/12 04:52:08;;;;;;;9.63;3.63;;;20.30;55.10;;;;;;4933163;29;20377;-74
2023/04/12 04:54:34;;;;;;;9.07;4.28;;;20.30;55.00;;;;;;4934409;29;20496;-73
2023/04/12 04:57:01;;;;;;;10.77;4.18;;;20.20;54.90;;;;;;4913585;29;20031;-73
2023/04/12 04:59:27;;;;;;;8.75;3.20;;;20.20;54.80;;;;;;4917320;29;20028;-73
2023/04/12 05:02:10;;;;;;;12.07;3.33;;;20.20;54.90;;;;;;4934181;29;20488;-73
2023/04/12 05:04:36;;;;;;;9.77;3.40;;;20.30;55.00;;;;;;4932975;29;20067;-74
2023/04/12 05:07:02;;;;;;;5.60;3.33;;;20.30;55.00;;;;;;4934285;29;20054;-74
2023/04/12 05:09:28;;;;;;;8.57;3.70;;;20.30;54.80;;;;;;4916987;29;20039;-74
2023/04/12 05:11:55;;;;;;;7.85;3.70;;;20.30;54.80;;;;;;4932599;29;20038;-74
2023/04/12 05:14:21;;;;;;;8.30;3.30;;;20.30;54.80;;;;;;4931727;29;20111;-74
2023/04/12 05:16:47;;;;;;;11.52;3.90;;;20.30;55.60;;;;;;4932928;29;20046;-74
2023/04/12 05:19:13;;;;;;;10.13;3.80;;;20.30;54.90;;;;;;4932632;29;20039;-74
2023/04/12 05:21:39;;;;;;;7.18;3.65;;;20.30;54.80;;;;;;4932126;29;20043;-74
2023/04/12 05:24:05;;;;;;;8.13;3.92;;;20.30;54.80;;;;;;4932680;29;20043;-74
2023/04/12 05:26:33;;;;;;;8.60;3.40;;;20.30;54.70;;;;;;4932744;29;20044;-74
2023/04/12 05:29:01;;;;;;;9.02;3.45;;;20.30;54.70;;;;;;4932349;29;20036;-74
2023/04/12 05:31:27;;;;;;;6.93;3.80;;;20.30;54.60;;;;;;4932345;29;20107;-74
2023/04/12 05:33:54;;;;;;;10.90;3.47;;;20.30;54.70;;;;;;4916634;29;20496;-74
2023/04/12 05:36:24;;;;;;;11.73;3.38;;;20.30;54.70;;;;;;4932868;29;20040;-74
2023/04/12 05:38:51;;;;;;;7.90;3.15;;;20.20;54.60;;;;;;4933462;29;20035;-74
2023/04/12 05:41:17;;;;;;;11.00;3.08;;;20.30;54.50;;;;;;4931624;29;20559;-74
2023/04/12 05:43:43;;;;;;;8.75;3.42;;;20.30;54.40;;;;;;4932345;29;20504;-75
2023/04/12 05:46:10;;;;;;;7.40;3.08;;;20.30;54.30;;;;;;4932341;29;20051;-74
2023/04/12 05:48:37;;;;;;;10.35;3.58;;;20.30;54.30;;;;;;4932272;29;20028;-75
2023/04/12 05:51:04;;;;;;;7.65;3.80;;;20.30;54.40;;;;;;4930948;29;20055;-75
2023/04/12 05:53:31;;;;;;;9.50;3.22;;;20.30;54.30;;;;;;4932260;29;20042;-75
2023/04/12 05:55:59;;;;;;;13.68;4.18;;;20.30;54.30;;;;;;4916582;29;20043;-75
2023/04/12 05:58:25;;;;;;;9.60;3.67;;;20.30;54.30;;;;;;4931824;29;20031;-74
2023/04/12 06:00:54;;;;;;;9.13;3.60;;;20.30;54.30;;;;;;4931338;29;20448;-74
2023/04/12 06:03:22;;;;;;;10.40;3.30;;;20.30;54.30;;;;;;4931928;29;20023;-74
2023/04/12 06:05:48;;;;;;;7.28;3.50;;;20.30;54.60;;;;;;4931931;29;20107;-74
2023/04/12 06:08:15;;;;;;;9.18;3.85;;;20.30;54.50;;;;;;4915811;29;20424;-74
2023/04/12 06:10:41;;;;;;;7.72;3.15;;;20.40;54.50;;;;;;4931125;29;20111;-73
2023/04/12 06:13:07;;;;;;;9.10;3.70;;;20.30;54.60;;;;;;4915800;29;20616;-73
2023/04/12 06:15:33;;;;;;;6.65;3.15;;;20.30;54.40;;;;;;4931819;29;20386;-73
2023/04/12 06:17:59;;;;;;;6.53;3.20;;;20.40;54.40;;;;;;4931583;29;20030;-73
2023/04/12 06:20:25;;;;;;;8.10;3.58;;;20.30;54.40;;;;;;4915491;29;20089;-74
2023/04/12 06:22:51;;;;;;;7.82;3.28;;;20.40;54.40;;;;;;4899145;29;20131;-72
2023/04/12 06:25:17;;;;;;;6.63;3.05;;;20.30;54.40;;;;;;4898359;29;20312;-72
2023/04/12 06:27:45;;;;;;;6.47;3.17;;;20.30;54.30;;;;;;4914727;29;20157;-73
2023/04/12 06:30:13;;;;;;;5.93;2.88;;;20.40;54.50;;;;;;4914375;29;20062;-74
2023/04/12 06:32:39;;;;;;;5.63;3.10;;;20.40;54.40;;;;;;4898908;29;20084;-74
2023/04/12 06:35:05;;;;;;;4.22;2.85;;;20.40;54.50;;;;;;4914620;29;20060;-74
2023/04/12 06:37:32;;;;;;;6.72;3.30;;;20.40;54.70;;;;;;4914557;29;20089;-74
2023/04/12 06:40:00;;;;;;;9.68;2.97;;;20.40;54.50;;;;;;4915386;29;20497;-72
2023/04/12 06:42:26;;;;;;;7.40;3.30;;;20.40;54.80;;;;;;4914085;29;20028;-74
2023/04/12 06:44:54;;;;;;;5.90;2.90;;;20.40;54.70;;;;;;4914136;29;20389;-74
2023/04/12 06:47:21;;;;;;;7.15;2.95;;;20.40;55.90;;;;;;4915368;29;20523;-73
2023/04/12 06:49:54;;;;;;;9.07;3.10;;;20.40;55.20;;;;;;4913640;29;20035;-73
2023/04/12 06:52:24;;;;;;;6.28;2.97;;;20.40;55.20;;;;;;4914234;29;20035;-74
2023/04/12 06:54:50;;;;;;;7.63;3.10;;;20.40;55.90;;;;;;4915372;29;20099;-74
2023/04/12 06:57:15;;;;;;;7.28;3.22;;;20.50;56.10;;;;;;4915178;29;20152;-74
2023/04/12 06:59:41;;;;;;;7.15;2.92;;;20.50;56.30;;;;;;4915295;29;20123;-74
2023/04/12 07:02:10;;;;;;;7.72;3.70;;;20.50;56.90;;;;;;4908646;29;20155;-77
2023/04/12 07:04:36;;;;;;;12.85;5.28;;;20.40;55.00;;;;;;4907652;29;20051;-77
2023/04/12 07:07:02;;;;;;;11.10;4.25;;;20.30;51.20;;;;;;4902162;29;20028;-77
2023/04/12 07:09:31;;;;;;;8.70;3.88;;;20.10;49.60;;;;;;4910625;29;20624;-77
2023/04/12 07:11:58;;;;;;;15.30;3.55;;;20.00;46.50;;;;;;4911702;29;20048;-77
2023/04/12 07:14:27;;;;;;;10.80;3.08;;;20.00;45.50;;;;;;4910069;29;20107;-76
2023/04/12 07:16:53;;;;;;;12.25;2.92;;;19.90;46.20;;;;;;4912384;29;20036;-76
2023/04/12 07:19:19;;;;;;;19.27;3.05;;;19.90;46.50;;;;;;4927430;29;20090;-86
2023/04/12 07:21:47;;;;;;;12.77;3.08;;;19.90;44.60;;;;;;4927354;29;20032;-73
2023/04/12 07:24:17;;;;;;;8.10;2.95;;;19.90;44.70;;;;;;4912486;29;20063;-74
2023/04/12 07:26:43;;;;;;;10.35;3.38;;;20.00;46.30;;;;;;4927879;29;20135;-73
2023/04/12 07:29:08;;;;;;;13.32;3.50;;;20.20;50.30;;;;;;4928873;29;20043;-73
2023/04/12 07:31:34;;;;;;;27.77;3.90;;;20.30;50.60;;;;;;4928428;29;20405;-73
2023/04/12 07:34:00;;;;;;;14.35;3.60;;;20.40;52.50;;;;;;4928626;29;20480;-72
2023/04/12 07:36:26;;;;;;;14.70;3.60;;;20.50;50.30;;;;;;4928416;29;20260;-72
2023/04/12 07:38:54;;;;;;;13.25;3.55;;;20.50;50.30;;;;;;4928210;29;20028;-73
2023/04/12 07:41:21;;;;;;;18.55;3.10;;;20.60;49.80;;;;;;4880768;29;20039;-73
2023/04/12 07:43:47;;;;;;;10.52;2.80;;;20.60;49.50;;;;;;4911610;29;20445;-73
2023/04/12 07:46:13;;;;;;;9.95;2.70;;;20.60;49.60;;;;;;4911770;29;20385;-73
2023/04/12 07:48:39;;;;;;;9.85;2.67;;;20.60;49.70;;;;;;4912658;29;20043;-73
2023/04/12 07:51:05;;;;;;;15.88;2.70;;;20.60;49.90;;;;;;4911625;29;20043;-73
2023/04/12 07:53:31;;;;;;;11.20;2.30;;;20.70;50.30;;;;;;4910863;29;20548;-73
2023/04/12 07:55:57;;;;;;;9.77;3.20;;;20.70;50.50;;;;;;4912295;29;20035;-73
2023/04/12 07:58:24;;;;;;;13.25;2.90;;;20.70;50.70;;;;;;4910609;29;20035;-73
2023/04/12 08:00:51;;;;;;;9.02;2.60;;;20.70;50.90;;;;;;4911251;29;20024;-73
2023/04/12 08:03:17;;;;;;;8.65;2.50;;;20.70;51.00;;;;;;4909998;29;20070;-73
2023/04/12 08:06:00;;;;;;;15.88;2.67;;;20.70;51.30;;;;;;4911556;29;20028;-73
2023/04/12 08:08:25;;;;;;;11.13;2.70;;;20.70;51.50;;;;;;4907673;29;20035;-74
2023/04/12 08:10:52;;;;;;;12.93;3.00;;;20.70;51.50;;;;;;4909972;29;20043;-73
2023/04/12 08:13:18;;;;;;;10.52;2.97;;;20.80;51.70;;;;;;4909998;29;20024;-72
2023/04/12 08:15:45;;;;;;;9.40;2.85;;;20.80;52.10;;;;;;4927102;29;20215;-73
2023/04/12 08:18:12;;;;;;;6.78;2.10;;;20.80;52.20;;;;;;4928143;29;20108;-73
2023/04/12 08:20:42;;;;;;;10.05;2.58;;;20.80;52.10;;;;;;4911365;29;20035;-72
2023/04/12 08:23:10;;;;;;;7.70;2.35;;;20.80;52.20;;;;;;4910410;29;20032;-73
2023/04/12 08:25:36;;;;;;;12.32;2.72;;;20.80;52.40;;;;;;4910391;29;20028;-73
2023/04/12 08:28:02;;;;;;;10.77;2.67;;;20.80;52.40;;;;;;4915499;29;20023;-73
2023/04/12 08:30:28;;;;;;;12.75;2.50;;;20.80;52.50;;;;;;4927745;29;20110;-73
2023/04/12 08:32:54;;;;;;;8.00;2.30;;;20.70;52.50;;;;;;4927136;29;20044;-73
2023/04/12 08:35:21;;;;;;;8.00;2.20;;;20.80;52.60;;;;;;4927748;29;20047;-73
2023/04/12 08:37:48;;;;;;;9.40;2.53;;;20.80;53.30;;;;;;4926213;29;20484;-72
2023/04/12 08:40:14;;;;;;;8.77;2.22;;;20.80;52.70;;;;;;4927506;29;20028;-72
2023/04/12 08:42:40;;;;;;;7.47;2.40;;;20.80;52.70;;;;;;4927144;29;20036;-72
2023/04/12 08:45:10;;;;;;;12.82;2.80;;;20.80;52.70;;;;;;4927314;29;20039;-73
2023/04/12 08:47:38;;;;;;;9.10;2.40;;;20.80;52.70;;;;;;4927389;29;20117;-73
2023/04/12 08:50:08;;;;;;;8.82;2.70;;;20.80;52.80;;;;;;4927949;29;20047;-72
2023/04/12 08:52:36;;;;;;;11.82;2.45;;;20.80;52.90;;;;;;4930522;29;20034;-73
2023/04/12 08:55:03;;;;;;;7.97;2.20;;;20.80;53.00;;;;;;4930830;29;20036;-72
2023/04/12 08:57:31;;;;;;;10.02;2.13;;;20.80;53.10;;;;;;4930977;29;20484;-74
2023/04/12 08:59:59;;;;;;;6.03;2.60;;;20.80;53.10;;;;;;4930403;29;20023;-73
2023/04/12 09:02:25;;;;;;;8.52;2.50;;;20.80;53.20;;;;;;4922047;29;20028;-73
2023/04/12 09:04:52;;;;;;;5.93;2.33;;;20.80;53.20;;;;;;4929450;29;20099;-74
2023/04/12 09:07:18;;;;;;;7.82;2.70;;;20.80;53.20;;;;;;4929678;29;20103;-73
2023/04/12 09:09:46;;;;;;;5.72;2.53;;;20.80;53.20;;;;;;4930238;29;20096;-73
2023/04/12 09:12:14;;;;;;;7.97;2.85;;;20.80;53.30;;;;;;4919370;29;20481;-74
2023/04/12 09:14:43;;;;;;;6.78;2.42;;;20.80;53.30;;;;;;4912092;29;20048;-74
2023/04/12 09:17:23;;;;;;;7.88;2.60;;;20.80;53.40;;;;;;4896710;29;20515;-73
2023/04/12 09:19:50;;;;;;;9.23;3.30;;;20.80;53.40;;;;;;4913022;29;20425;-73
2023/04/12 09:22:16;;;;;;;6.70;2.63;;;20.80;53.50;;;;;;4915227;29;20028;-74
2023/04/12 09:24:52;;;;;;;7.88;2.60;;;20.80;53.50;;;;;;4930575;29;20122;-72
2023/04/12 09:27:21;;;;;;;6.72;2.35;;;20.80;53.50;;;;;;4929005;29;20032;-74
2023/04/12 09:29:50;;;;;;;6.93;2.67;;;20.80;54.20;;;;;;4930347;29;20138;-73
2023/04/12 09:32:29;;;;;;;6.93;2.50;;;20.80;53.70;;;;;;4932977;29;20082;-73
2023/04/12 09:34:57;;;;;;;8.10;2.72;;;20.80;53.70;;;;;;4933320;29;20050;-73
2023/04/12 09:37:23;;;;;;;10.10;2.50;;;20.80;53.70;;;;;;4933076;29;20032;-73
2023/04/12 09:40:03;;;;;;;6.55;2.30;;;20.80;53.70;;;;;;4915496;29;20522;-74
2023/04/12 09:42:29;;;;;;;5.47;2.63;;;20.90;53.80;;;;;;4932675;29;20031;-74
2023/04/12 09:45:00;;;;;;;6.70;2.50;;;20.80;53.80;;;;;;4932750;29;20027;-73
2023/04/12 09:47:39;;;;;;;10.88;3.38;;;20.80;53.80;;;;;;4933314;29;20032;-74
2023/04/12 09:50:06;;;;;;;9.00;2.72;;;20.80;53.80;;;;;;4932573;29;20677;-74
2023/04/12 09:52:37;;;;;;;10.70;2.63;;;20.80;53.90;;;;;;4931112;29;20035;-73
2023/04/12 09:55:08;;;;;;;8.38;2.80;;;20.90;54.00;;;;;;4932172;29;20043;-73
2023/04/12 09:57:37;;;;;;;10.60;3.15;;;20.90;55.10;;;;;;4932523;29;20066;-73
2023/04/12 10:00:10;;;;;;;13.98;3.15;;;20.90;56.90;;;;;;4932325;29;20032;-73
2023/04/12 10:02:38;;;;;;;7.75;3.03;;;20.90;56.10;;;;;;4924837;29;20036;-73
2023/04/12 10:05:05;;;;;;;12.65;3.00;;;21.00;56.90;;;;;;4896667;29;20485;-74
2023/04/12 10:07:31;;;;;;;10.95;3.67;;;20.90;56.10;;;;;;4909429;29;20036;-74
2023/04/12 10:09:59;;;;;;;11.02;2.80;;;20.90;55.60;;;;;;4911679;29;20139;-73
2023/04/12 10:12:26;;;;;;;10.93;3.30;;;20.90;55.00;;;;;;4912867;29;20039;-73
2023/04/12 10:14:54;;;;;;;10.38;3.03;;;20.90;55.80;;;;;;4911947;29;20047;-73
2023/04/12 10:17:23;;;;;;;8.65;2.97;;;20.90;55.30;;;;;;4907731;29;20401;-73
2023/04/12 10:19:51;;;;;;;6.45;2.25;;;20.90;55.40;;;;;;4912349;29;20114;-74
2023/04/12 10:22:17;;;;;;;6.65;2.92;;;20.90;55.40;;;;;;4911746;29;20038;-74
2023/04/12 10:24:43;;;;;;;8.43;2.53;;;21.00;55.10;;;;;;4912804;29;20028;-74
2023/04/12 10:27:09;;;;;;;7.70;2.88;;;21.00;55.10;;;;;;4912946;29;20646;-74
2023/04/12 10:29:37;;;;;;;8.98;2.90;;;21.00;55.20;;;;;;4911162;29;20039;-74
2023/04/12 10:32:19;;;;;;;7.35;2.78;;;21.00;55.30;;;;;;4912502;29;20179;-72
2023/04/12 10:34:50;;;;;;;11.40;3.30;;;21.00;55.40;;;;;;4912635;29;20080;-73
2023/04/12 10:37:16;;;;;;;12.40;3.17;;;21.00;55.50;;;;;;4928567;29;20416;-73
2023/04/12 10:39:46;;;;;;;11.27;2.80;;;21.00;55.40;;;;;;4911589;29;20117;-73
2023/04/12 10:42:35;;;;;;;11.18;3.45;;;21.00;55.40;;;;;;4929242;29;20392;-73
2023/04/12 10:45:22;;;;;;;13.88;3.38;;;21.00;55.40;;;;;;4927888;29;20044;-73
2023/04/12 10:47:55;;;;;;;10.88;3.50;;;21.00;55.30;;;;;;4928837;29;20527;-73
2023/04/12 10:50:23;;;;;;;8.75;3.45;;;21.00;55.20;;;;;;4912369;29;20042;-73
2023/04/12 10:53:15;;;;;;;7.68;3.22;;;21.00;55.20;;;;;;4911911;29;20560;-73
2023/04/12 10:55:45;;;;;;;9.90;3.80;;;21.00;55.20;;;;;;4924441;29;20507;-72
2023/04/12 10:58:48;;;;;;;9.85;4.05;;;21.00;55.20;;;;;;4910623;29;20111;-73
2023/04/12 11:01:17;;;;;;;13.80;3.83;;;21.00;55.20;;;;;;4910643;29;20123;-73
2023/04/12 11:04:11;;;;;;;11.95;3.67;;;21.00;55.20;;;;;;4910751;29;20038;-73
2023/04/12 11:06:49;;;;;;;10.73;3.33;;;21.00;55.10;;;;;;4921485;29;20035;-73
2023/04/12 11:09:41;;;;;;;11.82;4.70;;;21.00;55.10;;;;;;4884233;29;20105;-73
2023/04/12 11:12:07;;;;;;;9.98;3.85;;;21.00;55.10;;;;;;4906933;29;20090;-73
2023/04/12 11:14:42;;;;;;;10.93;4.28;;;21.00;55.00;;;;;;4911259;29;20071;-73
2023/04/12 11:17:08;;;;;;;12.40;4.00;;;21.00;55.00;;;;;;4911346;29;20039;-72
2023/04/12 11:19:42;;;;;;;9.60;3.88;;;21.00;54.90;;;;;;4911044;29;20028;-73
2023/04/12 11:22:10;;;;;;;8.50;3.60;;;21.00;54.90;;;;;;4911158;29;20484;-73
2023/04/12 11:24:44;;;;;;;12.50;4.10;;;21.00;54.90;;;;;;4894427;29;20044;-73
2023/04/12 11:27:11;;;;;;;12.07;4.05;;;21.00;54.90;;;;;;4910061;29;20036;-73
2023/04/12 11:29:37;;;;;;;14.38;3.80;;;21.00;54.90;;;;;;4909447;29;20032;-73
2023/04/12 11:32:04;;;;;;;9.98;4.20;;;21.00;54.90;;;;;;4910293;29;20043;-73
2023/04/12 11:34:35;;;;;;;11.85;4.32;;;21.00;54.90;;;;;;4894274;29;20036;-73
2023/04/12 11:37:04;;;;;;;11.60;3.97;;;21.00;54.80;;;;;;4909899;29;20607;-72
2023/04/12 11:39:31;;;;;;;11.90;4.07;;;21.00;54.80;;;;;;4910821;29;20031;-73
2023/04/12 11:41:57;;;;;;;11.38;3.75;;;21.00;54.80;;;;;;4909794;29;20115;-73
2023/04/12 11:44:23;;;;;;;7.15;3.83;;;21.00;54.80;;;;;;4911460;29;20044;-72
2023/04/12 11:46:50;;;;;;;13.50;4.55;;;21.00;54.70;;;;;;4910830;29;20040;-73
2023/04/12 11:49:20;;;;;;;12.98;4.63;;;21.00;54.70;;;;;;4914984;29;20036;-73
2023/04/12 11:51:46;;;;;;;13.98;4.80;;;21.00;54.70;;;;;;4920367;29;20580;-73
2023/04/12 11:54:12;;;;;;;13.80;4.97;;;21.00;54.60;;;;;;4931265;29;20115;-73
2023/04/12 11:56:39;;;;;;;15.25;4.90;;;21.00;54.60;;;;;;4911517;29;20134;-72
2023/04/12 11:59:05;;;;;;;14.45;4.93;;;21.00;54.50;;;;;;4909610;29;20024;-72
2023/04/12 12:01:33;;;;;;;14.85;5.13;;;21.00;54.40;;;;;;4910202;29;20028;-73
2023/04/12 12:03:59;;;;;;;11.30;5.03;;;21.00;54.60;;;;;;4909556;29;20042;-72
2023/04/12 12:06:26;;;;;;;13.32;5.00;;;21.00;54.60;;;;;;4911242;29;20445;-72
2023/04/12 12:08:52;;;;;;;17.92;6.72;;;21.00;54.70;;;;;;4909509;29;20070;-73
2023/04/12 12:11:20;;;;;;;18.73;6.47;;;20.90;54.70;;;;;;4911341;29;20040;-72
2023/04/12 12:13:51;;;;;;;16.55;6.28;;;20.90;54.80;;;;;;4909901;29;20096;-73
2023/04/12 12:16:22;;;;;;;17.50;6.60;;;20.90;54.90;;;;;;4894073;29;20036;-72
2023/04/12 12:18:48;;;;;;;22.33;6.47;;;20.90;54.60;;;;;;4908962;29;20535;-73
2023/04/12 12:21:15;;;;;;;23.15;5.82;;;20.90;54.40;;;;;;4910743;29;20465;-72
2023/04/12 12:23:44;;;;;;;18.15;6.90;;;20.90;54.30;;;;;;4941422;23;20024;-75
2023/04/12 12:26:24;;;;;;;23.77;7.25;;;20.90;54.60;;;;;;4898599;29;20107;-74
2023/04/12 12:28:52;;;;;;;25.55;6.88;;;20.90;54.30;;;;;;4894115;29;20039;-73
2023/04/12 12:31:23;;;;;;;20.25;6.55;;;20.90;54.40;;;;;;4895893;29;20453;-74
2023/04/12 12:33:55;;;;;;;19.08;6.53;;;20.90;54.20;;;;;;4894419;29;20032;-74
2023/04/12 12:36:35;;;;;;;17.85;6.50;;;20.90;54.20;;;;;;4894606;29;20158;-74
2023/04/12 12:39:09;;;;;;;20.48;6.93;;;20.90;54.50;;;;;;4894691;29;20036;-73
2023/04/12 12:41:36;;;;;;;25.15;7.03;;;20.90;54.70;;;;;;4912846;29;20532;-73
2023/04/12 12:44:02;;;;;;;17.02;6.63;;;20.90;54.80;;;;;;4912698;29;20039;-73
2023/04/12 12:46:28;;;;;;;16.55;6.28;;;20.90;54.40;;;;;;4907675;29;20409;-73
2023/04/12 12:48:54;;;;;;;24.50;7.07;;;20.90;54.50;;;;;;4909764;29;20036;-73
2023/04/12 12:51:20;;;;;;;30.02;6.85;;;20.90;54.40;;;;;;4893959;29;20044;-74
2023/04/12 12:53:46;;;;;;;22.05;6.82;;;20.90;54.10;;;;;;4894018;29;20055;-74
2023/04/12 12:56:13;;;;;;;22.55;6.90;;;20.90;53.90;;;;;;4895323;29;20032;-74